sensor_id;sensor_type;location;lat;lon;timestamp;temperature;humidity
4934;DHT22;2482;49.154;8.254;2023-11-19T00:01:50;8.90;99.90
4934;DHT22;2482;49.154;8.254;2023-11-19T00:04:17;8.80;99.90
4934;DHT22;2482;49.154;8.254;2023-11-19T00:06:44;8.70;99.90
4934;DHT22;2482;49.154;8.254;2023-11-19T00:09:11;8.80;99.90
4934;DHT22;2482;49.154;8.254;2023-11-19T00:11:38;8.70;99.90
4934;DHT22;2482;49.154;8.254;2023-11-19T00:14:05;8.70;99.90
4934;DHT22;2482;49.154;8.254;2023-11-19T00:16:35;8.80;99.90
4934;DHT22;2482;49.154;8.254;2023-11-19T00:19:02;8.80;99.90
4934;DHT22;2482;49.154;8.254;2023-11-19T00:21:31;8.80;99.90
4934;DHT22;2482;49.154;8.254;2023-11-19T00:23:59;8.90;99.90
4934;DHT22;2482;49.154;8.254;2023-11-19T00:26:26;8.90;99.90
4934;DHT22;2482;49.154;8.254;2023-11-19T00:28:53;9.00;99.90
4934;DHT22;2482;49.154;8.254;2023-11-19T00:31:22;9.00;99.90
4934;DHT22;2482;49.154;8.254;2023-11-19T00:33:49;9.00;99.90
4934;DHT22;2482;49.154;8.254;2023-11-19T00:36:16;9.00;99.90
4934;DHT22;2482;49.154;8.254;2023-11-19T00:38:43;9.00;99.90
4934;DHT22;2482;49.154;8.254;2023-11-19T00:41:10;9.00;99.90
4934;DHT22;2482;49.154;8.254;2023-11-19T00:43:38;9.00;99.90
4934;DHT22;2482;49.154;8.254;2023-11-19T00:46:07;9.10;99.90
4934;DHT22;2482;49.154;8.254;2023-11-19T00:48:34;8.90;99.90
4934;DHT22;2482;49.154;8.254;2023-11-19T00:51:01;9.00;99.90
4934;DHT22;2482;49.154;8.254;2023-11-19T00:53:29;9.00;99.90
4934;DHT22;2482;49.154;8.254;2023-11-19T00:55:56;8.90;99.90
4934;DHT22;2482;49.154;8.254;2023-11-19T00:58:23;9.00;99.90
4934;DHT22;2482;49.154;8.254;2023-11-19T01:00:50;9.00;99.90
4934;DHT22;2482;49.154;8.254;2023-11-19T01:03:18;9.00;99.90
4934;DHT22;2482;49.154;8.254;2023-11-19T01:05:45;9.00;99.90
4934;DHT22;2482;49.154;8.254;2023-11-19T01:08:13;9.10;99.90
4934;DHT22;2482;49.154;8.254;2023-11-19T01:10:41;9.00;99.90
4934;DHT22;2482;49.154;8.254;2023-11-19T01:13:08;9.00;99.90
4934;DHT22;2482;49.154;8.254;2023-11-19T01:15:35;9.00;99.90
4934;DHT22;2482;49.154;8.254;2023-11-19T01:18:02;9.00;99.90
4934;DHT22;2482;49.154;8.254;2023-11-19T01:20:31;9.00;99.90
4934;DHT22;2482;49.154;8.254;2023-11-19T01:23:00;9.00;99.90
4934;DHT22;2482;49.154;8.254;2023-11-19T01:25:28;9.00;99.90
4934;DHT22;2482;49.154;8.254;2023-11-19T01:27:55;9.00;99.90
4934;DHT22;2482;49.154;8.254;2023-11-19T01:30:25;9.10;99.90
4934;DHT22;2482;49.154;8.254;2023-11-19T01:32:52;9.10;99.90
4934;DHT22;2482;49.154;8.254;2023-11-19T01:35:20;9.10;99.90
4934;DHT22;2482;49.154;8.254;2023-11-19T01:37:48;9.10;99.90
4934;DHT22;2482;49.154;8.254;2023-11-19T01:40:19;9.20;99.90
4934;DHT22;2482;49.154;8.254;2023-11-19T01:42:47;9.20;99.90
4934;DHT22;2482;49.154;8.254;2023-11-19T01:45:26;9.30;99.90
4934;DHT22;2482;49.154;8.254;2023-11-19T01:47:55;9.20;99.90
4934;DHT22;2482;49.154;8.254;2023-11-19T01:50:26;9.30;99.90
4934;DHT22;2482;49.154;8.254;2023-11-19T01:52:54;9.30;99.90
4934;DHT22;2482;49.154;8.254;2023-11-19T01:55:25;9.30;99.90
4934;DHT22;2482;49.154;8.254;2023-11-19T01:57:59;9.30;99.90
4934;DHT22;2482;49.154;8.254;2023-11-19T02:00:26;9.40;99.90
4934;DHT22;2482;49.154;8.254;2023-11-19T02:02:53;9.30;99.90
4934;DHT22;2482;49.154;8.254;2023-11-19T02:05:21;9.40;99.90
4934;DHT22;2482;49.154;8.254;2023-11-19T02:07:49;9.40;99.90
4934;DHT22;2482;49.154;8.254;2023-11-19T02:10:18;9.40;99.90
4934;DHT22;2482;49.154;8.254;2023-11-19T02:12:46;9.50;99.90
4934;DHT22;2482;49.154;8.254;2023-11-19T02:15:13;9.50;99.90
4934;DHT22;2482;49.154;8.254;2023-11-19T02:17:40;9.60;99.90
4934;DHT22;2482;49.154;8.254;2023-11-19T02:20:08;9.50;99.90
4934;DHT22;2482;49.154;8.254;2023-11-19T02:22:36;9.60;99.90
4934;DHT22;2482;49.154;8.254;2023-11-19T02:25:08;9.60;99.90
4934;DHT22;2482;49.154;8.254;2023-11-19T02:30:14;9.60;99.90
4934;DHT22;2482;49.154;8.254;2023-11-19T02:32:42;9.70;99.90
4934;DHT22;2482;49.154;8.254;2023-11-19T02:35:09;9.60;99.90
4934;DHT22;2482;49.154;8.254;2023-11-19T02:37:38;9.70;99.90
4934;DHT22;2482;49.154;8.254;2023-11-19T02:40:06;9.70;99.90
4934;DHT22;2482;49.154;8.254;2023-11-19T02:42:36;9.70;99.90
4934;DHT22;2482;49.154;8.254;2023-11-19T02:45:03;9.70;99.90
4934;DHT22;2482;49.154;8.254;2023-11-19T02:47:35;9.70;99.90
4934;DHT22;2482;49.154;8.254;2023-11-19T02:50:03;9.80;99.90
4934;DHT22;2482;49.154;8.254;2023-11-19T02:52:30;9.80;99.90
4934;DHT22;2482;49.154;8.254;2023-11-19T02:55:01;9.80;99.90
4934;DHT22;2482;49.154;8.254;2023-11-19T02:57:31;9.80;99.90
4934;DHT22;2482;49.154;8.254;2023-11-19T02:59:59;9.90;99.90
4934;DHT22;2482;49.154;8.254;2023-11-19T03:02:26;9.90;99.90
4934;DHT22;2482;49.154;8.254;2023-11-19T03:05:00;9.90;99.90
4934;DHT22;2482;49.154;8.254;2023-11-19T03:07:28;9.90;99.90
4934;DHT22;2482;49.154;8.254;2023-11-19T03:09:55;10.00;99.90
4934;DHT22;2482;49.154;8.254;2023-11-19T03:12:22;10.00;99.90
4934;DHT22;2482;49.154;8.254;2023-11-19T03:14:49;10.10;99.90
4934;DHT22;2482;49.154;8.254;2023-11-19T03:17:17;10.10;99.90
4934;DHT22;2482;49.154;8.254;2023-11-19T03:19:45;10.10;99.90
4934;DHT22;2482;49.154;8.254;2023-11-19T03:22:12;10.10;99.90
4934;DHT22;2482;49.154;8.254;2023-11-19T03:24:39;10.10;99.90
4934;DHT22;2482;49.154;8.254;2023-11-19T03:27:06;10.20;99.90
4934;DHT22;2482;49.154;8.254;2023-11-19T03:29:33;10.20;99.90
4934;DHT22;2482;49.154;8.254;2023-11-19T03:32:00;10.20;99.90
4934;DHT22;2482;49.154;8.254;2023-11-19T03:34:27;10.20;99.90
4934;DHT22;2482;49.154;8.254;2023-11-19T03:36:54;10.30;99.90
4934;DHT22;2482;49.154;8.254;2023-11-19T03:39:22;10.30;99.90
4934;DHT22;2482;49.154;8.254;2023-11-19T03:41:51;10.30;99.90
4934;DHT22;2482;49.154;8.254;2023-11-19T03:44:18;10.40;99.90
4934;DHT22;2482;49.154;8.254;2023-11-19T03:46:47;10.40;99.90
4934;DHT22;2482;49.154;8.254;2023-11-19T03:49:14;10.40;99.90
4934;DHT22;2482;49.154;8.254;2023-11-19T03:51:41;10.40;99.90
4934;DHT22;2482;49.154;8.254;2023-11-19T03:54:08;10.50;99.90
4934;DHT22;2482;49.154;8.254;2023-11-19T03:56:35;10.50;99.90
4934;DHT22;2482;49.154;8.254;2023-11-19T03:59:02;10.50;99.90
4934;DHT22;2482;49.154;8.254;2023-11-19T04:01:29;10.50;99.90
4934;DHT22;2482;49.154;8.254;2023-11-19T04:03:56;10.60;99.90
4934;DHT22;2482;49.154;8.254;2023-11-19T04:06:23;10.60;99.90
4934;DHT22;2482;49.154;8.254;2023-11-19T04:08:50;10.60;99.90
4934;DHT22;2482;49.154;8.254;2023-11-19T04:11:17;10.60;99.90
4934;DHT22;2482;49.154;8.254;2023-11-19T04:13:44;10.70;99.90
4934;DHT22;2482;49.154;8.254;2023-11-19T04:16:11;10.70;99.90
4934;DHT22;2482;49.154;8.254;2023-11-19T04:18:39;10.70;99.90
4934;DHT22;2482;49.154;8.254;2023-11-19T04:21:07;10.70;99.90
4934;DHT22;2482;49.154;8.254;2023-11-19T04:23:34;10.70;99.90
4934;DHT22;2482;49.154;8.254;2023-11-19T04:26:04;10.80;99.90
4934;DHT22;2482;49.154;8.254;2023-11-19T04:28:36;10.80;99.90
4934;DHT22;2482;49.154;8.254;2023-11-19T04:31:03;10.80;99.90
4934;DHT22;2482;49.154;8.254;2023-11-19T04:33:30;10.80;99.90
4934;DHT22;2482;49.154;8.254;2023-11-19T04:35:57;10.80;99.90
4934;DHT22;2482;49.154;8.254;2023-11-19T04:38:25;10.90;99.90
4934;DHT22;2482;49.154;8.254;2023-11-19T04:40:53;10.90;99.90
4934;DHT22;2482;49.154;8.254;2023-11-19T04:43:20;11.00;99.90
4934;DHT22;2482;49.154;8.254;2023-11-19T04:45:48;11.00;99.90
4934;DHT22;2482;49.154;8.254;2023-11-19T04:48:15;11.00;99.90
4934;DHT22;2482;49.154;8.254;2023-11-19T04:50:42;11.00;99.90
4934;DHT22;2482;49.154;8.254;2023-11-19T04:53:09;11.00;99.90
4934;DHT22;2482;49.154;8.254;2023-11-19T04:55:36;11.00;99.90
4934;DHT22;2482;49.154;8.254;2023-11-19T04:58:03;11.10;99.90
4934;DHT22;2482;49.154;8.254;2023-11-19T05:00:30;11.10;99.90
4934;DHT22;2482;49.154;8.254;2023-11-19T05:02:58;11.10;99.90
4934;DHT22;2482;49.154;8.254;2023-11-19T05:05:25;11.20;99.90
4934;DHT22;2482;49.154;8.254;2023-11-19T05:07:52;11.20;99.90
4934;DHT22;2482;49.154;8.254;2023-11-19T05:10:19;11.20;99.90
4934;DHT22;2482;49.154;8.254;2023-11-19T05:12:46;11.30;99.90
4934;DHT22;2482;49.154;8.254;2023-11-19T05:15:13;11.30;99.90
4934;DHT22;2482;49.154;8.254;2023-11-19T05:17:40;11.30;99.90
4934;DHT22;2482;49.154;8.254;2023-11-19T05:20:08;11.30;99.90
4934;DHT22;2482;49.154;8.254;2023-11-19T05:22:41;11.30;99.90
4934;DHT22;2482;49.154;8.254;2023-11-19T05:25:09;11.30;99.90
4934;DHT22;2482;49.154;8.254;2023-11-19T05:27:39;11.40;99.90
4934;DHT22;2482;49.154;8.254;2023-11-19T05:30:06;11.40;99.90
4934;DHT22;2482;49.154;8.254;2023-11-19T05:32:34;11.40;99.90
4934;DHT22;2482;49.154;8.254;2023-11-19T05:35:01;11.30;99.90
4934;DHT22;2482;49.154;8.254;2023-11-19T05:37:28;11.40;99.90
4934;DHT22;2482;49.154;8.254;2023-11-19T05:39:55;11.40;99.90
4934;DHT22;2482;49.154;8.254;2023-11-19T05:42:22;11.40;99.90
4934;DHT22;2482;49.154;8.254;2023-11-19T05:44:50;11.50;99.90
4934;DHT22;2482;49.154;8.254;2023-11-19T05:47:18;11.50;99.90
4934;DHT22;2482;49.154;8.254;2023-11-19T05:49:45;11.50;99.90
4934;DHT22;2482;49.154;8.254;2023-11-19T05:52:12;11.50;99.90
4934;DHT22;2482;49.154;8.254;2023-11-19T05:54:39;11.50;99.90
4934;DHT22;2482;49.154;8.254;2023-11-19T05:57:07;11.50;99.90
4934;DHT22;2482;49.154;8.254;2023-11-19T05:59:37;11.50;99.90
4934;DHT22;2482;49.154;8.254;2023-11-19T06:02:04;11.60;99.90
4934;DHT22;2482;49.154;8.254;2023-11-19T06:04:31;11.50;99.90
4934;DHT22;2482;49.154;8.254;2023-11-19T06:06:58;11.60;99.90
4934;DHT22;2482;49.154;8.254;2023-11-19T06:09:26;11.60;99.90
4934;DHT22;2482;49.154;8.254;2023-11-19T06:11:53;11.60;99.90
4934;DHT22;2482;49.154;8.254;2023-11-19T06:14:20;11.50;99.90
4934;DHT22;2482;49.154;8.254;2023-11-19T06:16:47;11.60;99.90
4934;DHT22;2482;49.154;8.254;2023-11-19T06:19:15;11.60;99.90
4934;DHT22;2482;49.154;8.254;2023-11-19T06:21:42;11.60;99.90
4934;DHT22;2482;49.154;8.254;2023-11-19T06:24:09;11.60;99.90
4934;DHT22;2482;49.154;8.254;2023-11-19T06:26:36;11.60;99.90
4934;DHT22;2482;49.154;8.254;2023-11-19T06:29:03;11.70;99.90
4934;DHT22;2482;49.154;8.254;2023-11-19T06:31:30;11.70;99.90
4934;DHT22;2482;49.154;8.254;2023-11-19T06:33:57;11.70;99.90
4934;DHT22;2482;49.154;8.254;2023-11-19T06:36:24;11.60;99.90
4934;DHT22;2482;49.154;8.254;2023-11-19T06:38:51;11.60;99.90
4934;DHT22;2482;49.154;8.254;2023-11-19T06:41:19;11.70;99.90
4934;DHT22;2482;49.154;8.254;2023-11-19T06:43:46;11.70;99.90
4934;DHT22;2482;49.154;8.254;2023-11-19T06:46:17;11.70;99.90
4934;DHT22;2482;49.154;8.254;2023-11-19T06:48:44;11.70;99.90
4934;DHT22;2482;49.154;8.254;2023-11-19T06:51:12;11.70;99.90
4934;DHT22;2482;49.154;8.254;2023-11-19T06:53:39;11.80;99.90
4934;DHT22;2482;49.154;8.254;2023-11-19T06:56:23;11.80;99.90
4934;DHT22;2482;49.154;8.254;2023-11-19T06:58:52;11.80;99.90
4934;DHT22;2482;49.154;8.254;2023-11-19T07:01:19;11.90;99.90
4934;DHT22;2482;49.154;8.254;2023-11-19T07:03:47;11.90;99.90
4934;DHT22;2482;49.154;8.254;2023-11-19T07:06:15;11.90;99.90
4934;DHT22;2482;49.154;8.254;2023-11-19T07:08:42;12.00;99.90
4934;DHT22;2482;49.154;8.254;2023-11-19T07:11:13;11.90;99.90
4934;DHT22;2482;49.154;8.254;2023-11-19T07:13:43;11.90;99.90
4934;DHT22;2482;49.154;8.254;2023-11-19T07:16:14;11.90;99.90
4934;DHT22;2482;49.154;8.254;2023-11-19T07:18:41;11.80;99.90
4934;DHT22;2482;49.154;8.254;2023-11-19T07:21:10;11.80;99.90
4934;DHT22;2482;49.154;8.254;2023-11-19T07:23:38;11.90;99.90
4934;DHT22;2482;49.154;8.254;2023-11-19T07:26:06;11.80;99.90
4934;DHT22;2482;49.154;8.254;2023-11-19T07:28:35;11.80;99.90
4934;DHT22;2482;49.154;8.254;2023-11-19T07:31:02;11.80;99.90
4934;DHT22;2482;49.154;8.254;2023-11-19T07:33:29;11.80;99.90
4934;DHT22;2482;49.154;8.254;2023-11-19T07:35:56;11.80;99.90
4934;DHT22;2482;49.154;8.254;2023-11-19T07:38:23;11.80;99.90
4934;DHT22;2482;49.154;8.254;2023-11-19T07:40:50;11.90;99.90
4934;DHT22;2482;49.154;8.254;2023-11-19T07:43:20;11.90;99.90
4934;DHT22;2482;49.154;8.254;2023-11-19T07:45:48;11.90;99.90
4934;DHT22;2482;49.154;8.254;2023-11-19T07:48:15;11.90;99.90
4934;DHT22;2482;49.154;8.254;2023-11-19T07:50:43;11.90;99.90
4934;DHT22;2482;49.154;8.254;2023-11-19T07:53:10;11.90;99.90
4934;DHT22;2482;49.154;8.254;2023-11-19T07:55:39;12.00;99.90
4934;DHT22;2482;49.154;8.254;2023-11-19T07:58:08;12.00;99.90
4934;DHT22;2482;49.154;8.254;2023-11-19T08:00:36;12.10;99.90
4934;DHT22;2482;49.154;8.254;2023-11-19T08:03:04;12.10;99.90
4934;DHT22;2482;49.154;8.254;2023-11-19T08:05:31;12.10;99.90
4934;DHT22;2482;49.154;8.254;2023-11-19T08:07:59;12.10;99.90
4934;DHT22;2482;49.154;8.254;2023-11-19T08:10:26;12.20;99.90
4934;DHT22;2482;49.154;8.254;2023-11-19T08:12:53;12.20;99.90
4934;DHT22;2482;49.154;8.254;2023-11-19T08:15:20;12.30;99.90
4934;DHT22;2482;49.154;8.254;2023-11-19T08:17:50;12.20;99.90
4934;DHT22;2482;49.154;8.254;2023-11-19T08:20:18;12.20;99.90
4934;DHT22;2482;49.154;8.254;2023-11-19T08:22:45;12.30;99.90
4934;DHT22;2482;49.154;8.254;2023-11-19T08:25:12;12.30;99.90
4934;DHT22;2482;49.154;8.254;2023-11-19T08:27:39;12.40;99.90
4934;DHT22;2482;49.154;8.254;2023-11-19T08:30:07;12.40;99.90
4934;DHT22;2482;49.154;8.254;2023-11-19T08:32:34;12.40;99.90
4934;DHT22;2482;49.154;8.254;2023-11-19T08:35:02;12.60;99.90
4934;DHT22;2482;49.154;8.254;2023-11-19T08:37:29;12.60;99.90
4934;DHT22;2482;49.154;8.254;2023-11-19T08:39:57;12.70;99.90
4934;DHT22;2482;49.154;8.254;2023-11-19T08:42:24;12.80;99.90
4934;DHT22;2482;49.154;8.254;2023-11-19T08:44:51;12.90;99.90
4934;DHT22;2482;49.154;8.254;2023-11-19T08:47:21;13.00;99.90
4934;DHT22;2482;49.154;8.254;2023-11-19T08:49:52;13.10;99.90
4934;DHT22;2482;49.154;8.254;2023-11-19T08:52:23;13.20;99.90
4934;DHT22;2482;49.154;8.254;2023-11-19T08:54:50;13.20;99.90
4934;DHT22;2482;49.154;8.254;2023-11-19T08:57:17;13.30;99.90
4934;DHT22;2482;49.154;8.254;2023-11-19T08:59:44;13.40;99.90
4934;DHT22;2482;49.154;8.254;2023-11-19T09:02:12;13.40;99.90
4934;DHT22;2482;49.154;8.254;2023-11-19T09:04:39;13.50;99.90
4934;DHT22;2482;49.154;8.254;2023-11-19T09:07:08;13.50;99.90
4934;DHT22;2482;49.154;8.254;2023-11-19T09:09:38;13.50;99.90
4934;DHT22;2482;49.154;8.254;2023-11-19T09:12:05;13.60;99.90
4934;DHT22;2482;49.154;8.254;2023-11-19T09:14:32;13.60;99.90
4934;DHT22;2482;49.154;8.254;2023-11-19T09:16:59;13.70;99.90
4934;DHT22;2482;49.154;8.254;2023-11-19T09:19:27;13.60;99.90
4934;DHT22;2482;49.154;8.254;2023-11-19T09:21:54;13.60;99.90
4934;DHT22;2482;49.154;8.254;2023-11-19T09:24:21;13.70;99.90
4934;DHT22;2482;49.154;8.254;2023-11-19T09:26:49;13.80;99.90
4934;DHT22;2482;49.154;8.254;2023-11-19T09:29:16;13.90;99.90
4934;DHT22;2482;49.154;8.254;2023-11-19T09:31:43;13.80;99.90
4934;DHT22;2482;49.154;8.254;2023-11-19T09:34:10;13.90;99.90
4934;DHT22;2482;49.154;8.254;2023-11-19T09:36:38;13.80;99.90
4934;DHT22;2482;49.154;8.254;2023-11-19T09:39:13;13.90;99.90
4934;DHT22;2482;49.154;8.254;2023-11-19T09:41:45;13.90;99.90
4934;DHT22;2482;49.154;8.254;2023-11-19T09:44:12;14.00;99.90
4934;DHT22;2482;49.154;8.254;2023-11-19T09:46:41;14.00;99.90
4934;DHT22;2482;49.154;8.254;2023-11-19T09:49:08;14.10;99.90
4934;DHT22;2482;49.154;8.254;2023-11-19T09:51:37;14.10;99.90
4934;DHT22;2482;49.154;8.254;2023-11-19T09:54:04;14.20;99.90
4934;DHT22;2482;49.154;8.254;2023-11-19T09:56:33;14.10;99.90
4934;DHT22;2482;49.154;8.254;2023-11-19T09:59:02;14.10;99.90
4934;DHT22;2482;49.154;8.254;2023-11-19T10:01:29;14.20;99.90
4934;DHT22;2482;49.154;8.254;2023-11-19T10:03:58;14.20;99.90
4934;DHT22;2482;49.154;8.254;2023-11-19T10:06:26;14.30;99.90
4934;DHT22;2482;49.154;8.254;2023-11-19T10:08:54;14.20;99.90
4934;DHT22;2482;49.154;8.254;2023-11-19T10:11:22;14.30;99.90
4934;DHT22;2482;49.154;8.254;2023-11-19T10:13:49;14.30;99.90
4934;DHT22;2482;49.154;8.254;2023-11-19T10:16:17;14.30;99.90
4934;DHT22;2482;49.154;8.254;2023-11-19T10:18:48;14.30;99.90
4934;DHT22;2482;49.154;8.254;2023-11-19T10:21:18;14.30;99.90
4934;DHT22;2482;49.154;8.254;2023-11-19T10:23:51;14.30;99.90
4934;DHT22;2482;49.154;8.254;2023-11-19T10:26:20;14.30;99.90
4934;DHT22;2482;49.154;8.254;2023-11-19T10:28:48;14.40;99.90
4934;DHT22;2482;49.154;8.254;2023-11-19T10:31:16;14.40;99.90
4934;DHT22;2482;49.154;8.254;2023-11-19T10:33:45;14.50;99.90
4934;DHT22;2482;49.154;8.254;2023-11-19T10:36:13;14.50;99.90
4934;DHT22;2482;49.154;8.254;2023-11-19T10:38:52;14.60;99.90
4934;DHT22;2482;49.154;8.254;2023-11-19T10:41:32;14.50;99.90
4934;DHT22;2482;49.154;8.254;2023-11-19T10:43:59;14.60;99.90
4934;DHT22;2482;49.154;8.254;2023-11-19T10:46:40;14.80;99.90
4934;DHT22;2482;49.154;8.254;2023-11-19T10:49:09;14.70;99.90
4934;DHT22;2482;49.154;8.254;2023-11-19T10:51:44;14.70;99.90
4934;DHT22;2482;49.154;8.254;2023-11-19T10:54:15;15.00;99.90
4934;DHT22;2482;49.154;8.254;2023-11-19T10:56:44;15.10;99.90
4934;DHT22;2482;49.154;8.254;2023-11-19T10:59:16;15.00;99.90
4934;DHT22;2482;49.154;8.254;2023-11-19T11:01:48;15.20;99.90
4934;DHT22;2482;49.154;8.254;2023-11-19T11:04:24;15.40;99.90
4934;DHT22;2482;49.154;8.254;2023-11-19T11:06:55;15.50;99.90
4934;DHT22;2482;49.154;8.254;2023-11-19T11:09:23;15.70;99.90
4934;DHT22;2482;49.154;8.254;2023-11-19T11:11:50;15.60;99.90
4934;DHT22;2482;49.154;8.254;2023-11-19T11:14:20;15.80;99.90
4934;DHT22;2482;49.154;8.254;2023-11-19T11:16:48;15.90;99.90
4934;DHT22;2482;49.154;8.254;2023-11-19T11:19:16;15.90;99.90
4934;DHT22;2482;49.154;8.254;2023-11-19T11:21:49;15.80;99.90
4934;DHT22;2482;49.154;8.254;2023-11-19T11:28:02;15.40;99.90
4934;DHT22;2482;49.154;8.254;2023-11-19T11:31:02;15.20;99.90
4934;DHT22;2482;49.154;8.254;2023-11-19T11:36:53;15.30;99.90
4934;DHT22;2482;49.154;8.254;2023-11-19T11:39:29;15.30;99.90
4934;DHT22;2482;49.154;8.254;2023-11-19T11:44:59;15.50;99.90
4934;DHT22;2482;49.154;8.254;2023-11-19T11:50:23;15.60;99.90
4934;DHT22;2482;49.154;8.254;2023-11-19T11:55:35;15.60;99.90
4934;DHT22;2482;49.154;8.254;2023-11-19T11:58:05;15.80;99.90
4934;DHT22;2482;49.154;8.254;2023-11-19T12:00:38;15.90;99.90
4934;DHT22;2482;49.154;8.254;2023-11-19T12:03:07;16.00;99.90
4934;DHT22;2482;49.154;8.254;2023-11-19T12:05:42;16.10;99.90
4934;DHT22;2482;49.154;8.254;2023-11-19T12:08:14;16.10;99.90
4934;DHT22;2482;49.154;8.254;2023-11-19T12:10:56;16.10;99.90
4934;DHT22;2482;49.154;8.254;2023-11-19T12:13:42;16.30;99.90
4934;DHT22;2482;49.154;8.254;2023-11-19T12:16:14;16.40;99.90
4934;DHT22;2482;49.154;8.254;2023-11-19T12:18:41;16.30;99.90
4934;DHT22;2482;49.154;8.254;2023-11-19T12:21:09;16.20;99.90
4934;DHT22;2482;49.154;8.254;2023-11-19T12:23:45;16.40;99.90
4934;DHT22;2482;49.154;8.254;2023-11-19T12:26:35;16.40;99.90
4934;DHT22;2482;49.154;8.254;2023-11-19T12:29:04;16.30;99.90
4934;DHT22;2482;49.154;8.254;2023-11-19T12:31:35;16.20;99.90
4934;DHT22;2482;49.154;8.254;2023-11-19T12:34:05;16.20;99.90
4934;DHT22;2482;49.154;8.254;2023-11-19T12:36:34;16.00;99.90
4934;DHT22;2482;49.154;8.254;2023-11-19T12:39:01;16.00;99.90
4934;DHT22;2482;49.154;8.254;2023-11-19T12:41:28;15.90;99.90
4934;DHT22;2482;49.154;8.254;2023-11-19T12:44:09;15.90;99.90
4934;DHT22;2482;49.154;8.254;2023-11-19T12:46:37;15.80;99.90
4934;DHT22;2482;49.154;8.254;2023-11-19T12:49:04;15.80;99.90
4934;DHT22;2482;49.154;8.254;2023-11-19T12:51:32;15.80;99.90
4934;DHT22;2482;49.154;8.254;2023-11-19T12:54:00;15.80;99.90
4934;DHT22;2482;49.154;8.254;2023-11-19T12:56:28;15.70;99.90
4934;DHT22;2482;49.154;8.254;2023-11-19T12:58:56;15.60;99.90
4934;DHT22;2482;49.154;8.254;2023-11-19T13:01:23;15.70;99.90
4934;DHT22;2482;49.154;8.254;2023-11-19T13:03:50;15.70;99.90
4934;DHT22;2482;49.154;8.254;2023-11-19T13:06:18;15.90;99.90
4934;DHT22;2482;49.154;8.254;2023-11-19T13:08:49;16.00;99.90
4934;DHT22;2482;49.154;8.254;2023-11-19T13:11:35;15.90;99.90
4934;DHT22;2482;49.154;8.254;2023-11-19T13:14:04;16.00;99.90
4934;DHT22;2482;49.154;8.254;2023-11-19T13:16:32;16.10;99.90
4934;DHT22;2482;49.154;8.254;2023-11-19T13:19:00;16.30;99.90
4934;DHT22;2482;49.154;8.254;2023-11-19T13:21:28;16.20;99.90
4934;DHT22;2482;49.154;8.254;2023-11-19T13:23:56;16.00;99.90
4934;DHT22;2482;49.154;8.254;2023-11-19T13:26:23;16.10;99.90
4934;DHT22;2482;49.154;8.254;2023-11-19T13:28:50;16.20;99.90
4934;DHT22;2482;49.154;8.254;2023-11-19T13:31:18;16.10;99.90
4934;DHT22;2482;49.154;8.254;2023-11-19T13:33:45;16.00;99.90
4934;DHT22;2482;49.154;8.254;2023-11-19T13:36:13;15.80;99.90
4934;DHT22;2482;49.154;8.254;2023-11-19T13:38:43;15.70;99.90
4934;DHT22;2482;49.154;8.254;2023-11-19T13:41:11;15.60;99.90
4934;DHT22;2482;49.154;8.254;2023-11-19T13:43:40;15.50;99.90
4934;DHT22;2482;49.154;8.254;2023-11-19T13:46:08;15.40;99.90
4934;DHT22;2482;49.154;8.254;2023-11-19T13:48:39;15.50;99.90
4934;DHT22;2482;49.154;8.254;2023-11-19T13:51:06;15.50;99.90
4934;DHT22;2482;49.154;8.254;2023-11-19T13:53:34;15.60;99.90
4934;DHT22;2482;49.154;8.254;2023-11-19T13:56:05;15.50;99.90
4934;DHT22;2482;49.154;8.254;2023-11-19T13:58:33;15.60;99.90
4934;DHT22;2482;49.154;8.254;2023-11-19T14:01:00;15.60;99.90
4934;DHT22;2482;49.154;8.254;2023-11-19T14:03:28;15.60;99.90
4934;DHT22;2482;49.154;8.254;2023-11-19T14:05:55;15.50;99.90
4934;DHT22;2482;49.154;8.254;2023-11-19T14:08:25;15.50;99.90
4934;DHT22;2482;49.154;8.254;2023-11-19T14:10:52;15.50;99.90
4934;DHT22;2482;49.154;8.254;2023-11-19T14:13:22;15.40;99.90
4934;DHT22;2482;49.154;8.254;2023-11-19T14:15:52;15.40;99.90
4934;DHT22;2482;49.154;8.254;2023-11-19T14:18:19;15.20;99.90
4934;DHT22;2482;49.154;8.254;2023-11-19T14:20:46;15.10;99.90
4934;DHT22;2482;49.154;8.254;2023-11-19T14:23:13;15.10;99.90
4934;DHT22;2482;49.154;8.254;2023-11-19T14:25:40;15.00;99.90
4934;DHT22;2482;49.154;8.254;2023-11-19T14:28:07;14.90;99.90
4934;DHT22;2482;49.154;8.254;2023-11-19T14:30:34;14.80;99.90
4934;DHT22;2482;49.154;8.254;2023-11-19T14:33:02;14.90;99.90
4934;DHT22;2482;49.154;8.254;2023-11-19T14:35:30;14.90;99.90
4934;DHT22;2482;49.154;8.254;2023-11-19T14:37:58;14.90;99.90
4934;DHT22;2482;49.154;8.254;2023-11-19T14:40:25;14.80;99.90
4934;DHT22;2482;49.154;8.254;2023-11-19T14:42:55;14.80;99.90
4934;DHT22;2482;49.154;8.254;2023-11-19T14:45:22;14.80;99.90
4934;DHT22;2482;49.154;8.254;2023-11-19T14:47:49;14.80;99.90
4934;DHT22;2482;49.154;8.254;2023-11-19T14:50:16;14.90;99.90
4934;DHT22;2482;49.154;8.254;2023-11-19T14:52:44;14.90;99.90
4934;DHT22;2482;49.154;8.254;2023-11-19T14:55:12;14.80;99.90
4934;DHT22;2482;49.154;8.254;2023-11-19T14:57:39;14.80;99.90
4934;DHT22;2482;49.154;8.254;2023-11-19T15:00:06;14.70;99.90
4934;DHT22;2482;49.154;8.254;2023-11-19T15:02:40;14.70;99.90
4934;DHT22;2482;49.154;8.254;2023-11-19T15:05:08;14.60;99.90
4934;DHT22;2482;49.154;8.254;2023-11-19T15:07:40;14.60;99.90
4934;DHT22;2482;49.154;8.254;2023-11-19T15:10:07;14.70;99.90
4934;DHT22;2482;49.154;8.254;2023-11-19T15:12:37;14.70;99.90
4934;DHT22;2482;49.154;8.254;2023-11-19T15:15:08;14.60;99.90
4934;DHT22;2482;49.154;8.254;2023-11-19T15:17:40;14.60;99.90
4934;DHT22;2482;49.154;8.254;2023-11-19T15:20:08;14.60;99.90
4934;DHT22;2482;49.154;8.254;2023-11-19T15:22:35;14.60;99.90
4934;DHT22;2482;49.154;8.254;2023-11-19T15:25:02;14.60;99.90
4934;DHT22;2482;49.154;8.254;2023-11-19T15:27:30;14.50;99.90
4934;DHT22;2482;49.154;8.254;2023-11-19T15:29:57;14.50;99.90
4934;DHT22;2482;49.154;8.254;2023-11-19T15:32:25;14.50;99.90
4934;DHT22;2482;49.154;8.254;2023-11-19T15:34:52;14.50;99.90
4934;DHT22;2482;49.154;8.254;2023-11-19T15:37:19;14.50;99.90
4934;DHT22;2482;49.154;8.254;2023-11-19T15:39:46;14.30;99.90
4934;DHT22;2482;49.154;8.254;2023-11-19T15:42:14;14.30;99.90
4934;DHT22;2482;49.154;8.254;2023-11-19T15:44:41;14.30;99.90
4934;DHT22;2482;49.154;8.254;2023-11-19T15:47:09;14.30;99.90
4934;DHT22;2482;49.154;8.254;2023-11-19T15:49:39;14.20;99.90
4934;DHT22;2482;49.154;8.254;2023-11-19T15:52:06;13.90;99.90
4934;DHT22;2482;49.154;8.254;2023-11-19T15:54:34;14.10;99.90
4934;DHT22;2482;49.154;8.254;2023-11-19T15:57:01;14.00;99.90
4934;DHT22;2482;49.154;8.254;2023-11-19T15:59:28;14.00;99.90
4934;DHT22;2482;49.154;8.254;2023-11-19T16:01:55;14.00;99.90
4934;DHT22;2482;49.154;8.254;2023-11-19T16:04:22;14.00;99.90
4934;DHT22;2482;49.154;8.254;2023-11-19T16:06:50;13.80;99.90
4934;DHT22;2482;49.154;8.254;2023-11-19T16:09:18;13.90;99.90
4934;DHT22;2482;49.154;8.254;2023-11-19T16:11:45;13.90;99.90
4934;DHT22;2482;49.154;8.254;2023-11-19T16:14:23;13.90;99.90
4934;DHT22;2482;49.154;8.254;2023-11-19T16:16:51;14.00;99.90
4934;DHT22;2482;49.154;8.254;2023-11-19T16:19:19;14.00;99.90
4934;DHT22;2482;49.154;8.254;2023-11-19T16:21:47;14.00;99.90
4934;DHT22;2482;49.154;8.254;2023-11-19T16:24:14;13.90;99.90
4934;DHT22;2482;49.154;8.254;2023-11-19T16:26:42;13.90;99.90
4934;DHT22;2482;49.154;8.254;2023-11-19T16:29:09;13.90;99.90
4934;DHT22;2482;49.154;8.254;2023-11-19T16:31:37;13.80;99.90